sensor_id;sensor_type;location;lat;lon;timestamp;temperature;humidity
54272;DHT22;40184;53.362;5.216;2022-12-11T00:02:00;3.30;99.90
54272;DHT22;40184;53.362;5.216;2022-12-11T00:04:26;2.90;99.90
54272;DHT22;40184;53.362;5.216;2022-12-11T00:06:52;2.80;99.90
54272;DHT22;40184;53.362;5.216;2022-12-11T00:09:19;3.20;99.90
54272;DHT22;40184;53.362;5.216;2022-12-11T00:11:46;3.10;99.90
54272;DHT22;40184;53.362;5.216;2022-12-11T00:14:12;3.60;99.90
54272;DHT22;40184;53.362;5.216;2022-12-11T00:16:38;3.10;99.90
54272;DHT22;40184;53.362;5.216;2022-12-11T00:19:05;3.00;99.90
54272;DHT22;40184;53.362;5.216;2022-12-11T00:21:31;3.20;99.90
54272;DHT22;40184;53.362;5.216;2022-12-11T00:23:56;3.00;99.90
54272;DHT22;40184;53.362;5.216;2022-12-11T00:26:22;3.40;99.90
54272;DHT22;40184;53.362;5.216;2022-12-11T00:28:52;3.30;99.90
54272;DHT22;40184;53.362;5.216;2022-12-11T00:31:19;3.30;99.90
54272;DHT22;40184;53.362;5.216;2022-12-11T00:33:46;3.40;99.90
54272;DHT22;40184;53.362;5.216;2022-12-11T00:36:20;3.60;99.90
54272;DHT22;40184;53.362;5.216;2022-12-11T00:38:47;3.70;99.90
54272;DHT22;40184;53.362;5.216;2022-12-11T00:41:14;3.10;99.90
54272;DHT22;40184;53.362;5.216;2022-12-11T00:43:40;3.60;99.90
54272;DHT22;40184;53.362;5.216;2022-12-11T00:46:05;3.40;99.90
54272;DHT22;40184;53.362;5.216;2022-12-11T00:48:31;3.10;99.90
54272;DHT22;40184;53.362;5.216;2022-12-11T00:50:57;3.20;99.90
54272;DHT22;40184;53.362;5.216;2022-12-11T00:53:23;3.80;99.90
54272;DHT22;40184;53.362;5.216;2022-12-11T00:55:49;3.40;99.90
54272;DHT22;40184;53.362;5.216;2022-12-11T00:58:15;3.40;99.90
54272;DHT22;40184;53.362;5.216;2022-12-11T01:00:41;3.70;99.90
54272;DHT22;40184;53.362;5.216;2022-12-11T01:03:08;3.40;99.90
54272;DHT22;40184;53.362;5.216;2022-12-11T01:05:35;3.20;99.90
54272;DHT22;40184;53.362;5.216;2022-12-11T01:08:02;3.40;99.90
54272;DHT22;40184;53.362;5.216;2022-12-11T01:10:27;3.30;99.90
54272;DHT22;40184;53.362;5.216;2022-12-11T01:12:59;3.30;99.90
54272;DHT22;40184;53.362;5.216;2022-12-11T01:15:33;3.20;99.90
54272;DHT22;40184;53.362;5.216;2022-12-11T01:17:59;3.10;99.90
54272;DHT22;40184;53.362;5.216;2022-12-11T01:20:26;3.40;99.90
54272;DHT22;40184;53.362;5.216;2022-12-11T01:22:53;3.00;99.90
54272;DHT22;40184;53.362;5.216;2022-12-11T01:25:19;3.10;99.90
54272;DHT22;40184;53.362;5.216;2022-12-11T01:27:45;3.10;99.90
54272;DHT22;40184;53.362;5.216;2022-12-11T01:30:12;3.10;99.90
54272;DHT22;40184;53.362;5.216;2022-12-11T01:32:37;3.50;99.90
54272;DHT22;40184;53.362;5.216;2022-12-11T01:35:05;3.30;99.90
54272;DHT22;40184;53.362;5.216;2022-12-11T01:37:32;3.10;99.90
54272;DHT22;40184;53.362;5.216;2022-12-11T01:39:58;3.10;99.90
54272;DHT22;40184;53.362;5.216;2022-12-11T01:42:23;3.30;99.90
54272;DHT22;40184;53.362;5.216;2022-12-11T01:47:15;3.50;99.90
54272;DHT22;40184;53.362;5.216;2022-12-11T01:49:41;3.60;99.90
54272;DHT22;40184;53.362;5.216;2022-12-11T01:52:15;3.30;99.90
54272;DHT22;40184;53.362;5.216;2022-12-11T01:54:44;3.20;99.90
54272;DHT22;40184;53.362;5.216;2022-12-11T01:57:12;3.00;99.90
54272;DHT22;40184;53.362;5.216;2022-12-11T01:59:41;3.00;99.90
54272;DHT22;40184;53.362;5.216;2022-12-11T02:02:27;3.30;99.90
54272;DHT22;40184;53.362;5.216;2022-12-11T02:04:53;3.30;99.90
54272;DHT22;40184;53.362;5.216;2022-12-11T02:07:19;3.00;99.90
54272;DHT22;40184;53.362;5.216;2022-12-11T02:09:46;3.20;99.90
54272;DHT22;40184;53.362;5.216;2022-12-11T02:12:25;3.40;99.90
54272;DHT22;40184;53.362;5.216;2022-12-11T02:15:08;3.60;99.90
54272;DHT22;40184;53.362;5.216;2022-12-11T02:17:47;3.50;99.90
54272;DHT22;40184;53.362;5.216;2022-12-11T02:23:58;3.10;99.90
54272;DHT22;40184;53.362;5.216;2022-12-11T02:27:35;3.40;99.90
54272;DHT22;40184;53.362;5.216;2022-12-11T02:29:40;3.20;99.90
54272;DHT22;40184;53.362;5.216;2022-12-11T02:32:16;3.40;99.90
54272;DHT22;40184;53.362;5.216;2022-12-11T02:35:13;3.10;99.90
54272;DHT22;40184;53.362;5.216;2022-12-11T02:37:42;3.10;99.90
54272;DHT22;40184;53.362;5.216;2022-12-11T02:40:11;3.20;99.90
54272;DHT22;40184;53.362;5.216;2022-12-11T02:42:40;3.50;99.90
54272;DHT22;40184;53.362;5.216;2022-12-11T02:45:07;3.40;99.90
54272;DHT22;40184;53.362;5.216;2022-12-11T02:47:34;3.60;99.90
54272;DHT22;40184;53.362;5.216;2022-12-11T02:50:07;3.60;99.90
54272;DHT22;40184;53.362;5.216;2022-12-11T02:52:35;3.50;99.90
54272;DHT22;40184;53.362;5.216;2022-12-11T02:55:02;3.00;99.90
54272;DHT22;40184;53.362;5.216;2022-12-11T02:57:37;3.60;99.90
54272;DHT22;40184;53.362;5.216;2022-12-11T03:00:04;3.40;99.90
54272;DHT22;40184;53.362;5.216;2022-12-11T03:02:31;3.50;99.90
54272;DHT22;40184;53.362;5.216;2022-12-11T03:04:57;3.60;99.90
54272;DHT22;40184;53.362;5.216;2022-12-11T03:07:27;3.60;99.90
54272;DHT22;40184;53.362;5.216;2022-12-11T03:09:54;3.20;99.90
54272;DHT22;40184;53.362;5.216;2022-12-11T03:12:27;3.50;99.90
54272;DHT22;40184;53.362;5.216;2022-12-11T03:14:53;3.30;99.90
54272;DHT22;40184;53.362;5.216;2022-12-11T03:17:21;3.40;99.90
54272;DHT22;40184;53.362;5.216;2022-12-11T03:20:29;3.20;99.90
54272;DHT22;40184;53.362;5.216;2022-12-11T03:25:43;3.40;99.90
54272;DHT22;40184;53.362;5.216;2022-12-11T03:28:18;3.50;99.90
54272;DHT22;40184;53.362;5.216;2022-12-11T03:30:48;3.30;99.90
54272;DHT22;40184;53.362;5.216;2022-12-11T03:33:37;3.20;99.90
54272;DHT22;40184;53.362;5.216;2022-12-11T03:36:08;3.40;99.90
54272;DHT22;40184;53.362;5.216;2022-12-11T03:38:58;3.10;99.90
54272;DHT22;40184;53.362;5.216;2022-12-11T03:41:25;3.50;99.90
54272;DHT22;40184;53.362;5.216;2022-12-11T03:43:54;3.30;99.90
54272;DHT22;40184;53.362;5.216;2022-12-11T03:46:24;3.30;99.90
54272;DHT22;40184;53.362;5.216;2022-12-11T03:48:53;3.70;99.90
54272;DHT22;40184;53.362;5.216;2022-12-11T03:51:21;3.10;99.90
54272;DHT22;40184;53.362;5.216;2022-12-11T03:53:49;3.30;99.90
54272;DHT22;40184;53.362;5.216;2022-12-11T03:56:16;3.20;99.90
54272;DHT22;40184;53.362;5.216;2022-12-11T03:58:43;3.10;99.90
54272;DHT22;40184;53.362;5.216;2022-12-11T04:01:10;3.10;99.90
54272;DHT22;40184;53.362;5.216;2022-12-11T04:03:37;3.80;99.90
54272;DHT22;40184;53.362;5.216;2022-12-11T04:06:03;3.10;99.90
54272;DHT22;40184;53.362;5.216;2022-12-11T04:08:28;3.50;99.90
54272;DHT22;40184;53.362;5.216;2022-12-11T04:10:54;3.30;99.90
54272;DHT22;40184;53.362;5.216;2022-12-11T04:13:39;3.60;99.90
54272;DHT22;40184;53.362;5.216;2022-12-11T04:16:06;3.70;99.90
54272;DHT22;40184;53.362;5.216;2022-12-11T04:18:31;3.80;99.90
54272;DHT22;40184;53.362;5.216;2022-12-11T04:21:16;3.40;99.90
54272;DHT22;40184;53.362;5.216;2022-12-11T04:24:00;3.10;99.90
54272;DHT22;40184;53.362;5.216;2022-12-11T04:26:45;3.20;99.90
54272;DHT22;40184;53.362;5.216;2022-12-11T04:29:12;3.20;99.90
54272;DHT22;40184;53.362;5.216;2022-12-11T04:31:38;3.10;99.90
54272;DHT22;40184;53.362;5.216;2022-12-11T04:34:04;3.80;99.90
54272;DHT22;40184;53.362;5.216;2022-12-11T04:36:30;3.20;99.90
54272;DHT22;40184;53.362;5.216;2022-12-11T04:38:55;3.70;99.90
54272;DHT22;40184;53.362;5.216;2022-12-11T04:41:21;3.20;99.90
54272;DHT22;40184;53.362;5.216;2022-12-11T04:43:47;3.50;99.90
54272;DHT22;40184;53.362;5.216;2022-12-11T04:46:19;3.60;99.90
54272;DHT22;40184;53.362;5.216;2022-12-11T04:48:45;3.30;99.90
54272;DHT22;40184;53.362;5.216;2022-12-11T04:51:11;3.70;99.90
54272;DHT22;40184;53.362;5.216;2022-12-11T04:53:37;3.30;99.90
54272;DHT22;40184;53.362;5.216;2022-12-11T04:56:12;3.70;99.90
54272;DHT22;40184;53.362;5.216;2022-12-11T04:58:38;3.20;99.90
54272;DHT22;40184;53.362;5.216;2022-12-11T05:01:12;3.60;99.90
54272;DHT22;40184;53.362;5.216;2022-12-11T05:03:38;3.90;99.90
54272;DHT22;40184;53.362;5.216;2022-12-11T05:06:05;3.40;99.90
54272;DHT22;40184;53.362;5.216;2022-12-11T05:08:34;3.90;99.90
54272;DHT22;40184;53.362;5.216;2022-12-11T05:11:04;3.80;99.90
54272;DHT22;40184;53.362;5.216;2022-12-11T05:13:31;3.40;99.90
54272;DHT22;40184;53.362;5.216;2022-12-11T05:15:57;3.30;99.90
54272;DHT22;40184;53.362;5.216;2022-12-11T05:18:23;3.70;99.90
54272;DHT22;40184;53.362;5.216;2022-12-11T05:21:03;3.60;99.90
54272;DHT22;40184;53.362;5.216;2022-12-11T05:23:29;3.30;99.90
54272;DHT22;40184;53.362;5.216;2022-12-11T05:26:02;3.50;99.90
54272;DHT22;40184;53.362;5.216;2022-12-11T05:28:30;3.70;99.90
54272;DHT22;40184;53.362;5.216;2022-12-11T05:31:03;3.70;99.90
54272;DHT22;40184;53.362;5.216;2022-12-11T05:33:29;3.70;99.90
54272;DHT22;40184;53.362;5.216;2022-12-11T05:35:55;3.60;99.90
54272;DHT22;40184;53.362;5.216;2022-12-11T05:38:21;3.30;99.90
54272;DHT22;40184;53.362;5.216;2022-12-11T05:41:04;3.20;99.90
54272;DHT22;40184;53.362;5.216;2022-12-11T05:43:32;3.30;99.90
54272;DHT22;40184;53.362;5.216;2022-12-11T05:46:06;3.80;99.90
54272;DHT22;40184;53.362;5.216;2022-12-11T05:48:33;3.20;99.90
54272;DHT22;40184;53.362;5.216;2022-12-11T05:51:00;3.30;99.90
54272;DHT22;40184;53.362;5.216;2022-12-11T05:53:26;3.80;99.90
54272;DHT22;40184;53.362;5.216;2022-12-11T05:55:52;3.60;99.90
54272;DHT22;40184;53.362;5.216;2022-12-11T05:58:18;3.40;99.90
54272;DHT22;40184;53.362;5.216;2022-12-11T06:00:45;3.60;99.90
54272;DHT22;40184;53.362;5.216;2022-12-11T06:03:11;3.20;99.90
54272;DHT22;40184;53.362;5.216;2022-12-11T06:05:38;3.30;99.90
54272;DHT22;40184;53.362;5.216;2022-12-11T06:08:04;3.20;99.90
54272;DHT22;40184;53.362;5.216;2022-12-11T06:10:30;3.20;99.90
54272;DHT22;40184;53.362;5.216;2022-12-11T06:12:55;3.70;99.90
54272;DHT22;40184;53.362;5.216;2022-12-11T06:15:21;3.70;99.90
54272;DHT22;40184;53.362;5.216;2022-12-11T06:17:47;3.20;99.90
54272;DHT22;40184;53.362;5.216;2022-12-11T06:20:12;3.50;99.90
54272;DHT22;40184;53.362;5.216;2022-12-11T06:22:38;3.50;99.90
54272;DHT22;40184;53.362;5.216;2022-12-11T06:25:04;3.80;99.90
54272;DHT22;40184;53.362;5.216;2022-12-11T06:27:30;3.40;99.90
54272;DHT22;40184;53.362;5.216;2022-12-11T06:29:56;3.40;99.90
54272;DHT22;40184;53.362;5.216;2022-12-11T06:32:21;3.30;99.90
54272;DHT22;40184;53.362;5.216;2022-12-11T06:34:47;3.10;99.90
54272;DHT22;40184;53.362;5.216;2022-12-11T06:37:12;3.40;99.90
54272;DHT22;40184;53.362;5.216;2022-12-11T06:39:38;3.60;99.90
54272;DHT22;40184;53.362;5.216;2022-12-11T06:42:04;3.60;99.90
54272;DHT22;40184;53.362;5.216;2022-12-11T06:44:29;3.40;99.90
54272;DHT22;40184;53.362;5.216;2022-12-11T06:46:55;3.20;99.90
54272;DHT22;40184;53.362;5.216;2022-12-11T06:49:21;3.50;99.90
54272;DHT22;40184;53.362;5.216;2022-12-11T06:51:47;3.50;99.90
54272;DHT22;40184;53.362;5.216;2022-12-11T06:54:12;3.70;99.90
54272;DHT22;40184;53.362;5.216;2022-12-11T06:56:38;3.60;99.90
54272;DHT22;40184;53.362;5.216;2022-12-11T06:59:04;3.50;99.90
54272;DHT22;40184;53.362;5.216;2022-12-11T07:01:30;3.20;99.90
54272;DHT22;40184;53.362;5.216;2022-12-11T07:03:57;3.50;99.90
54272;DHT22;40184;53.362;5.216;2022-12-11T07:06:24;3.50;99.90
54272;DHT22;40184;53.362;5.216;2022-12-11T07:08:50;3.30;99.90
54272;DHT22;40184;53.362;5.216;2022-12-11T07:11:17;3.70;99.90
54272;DHT22;40184;53.362;5.216;2022-12-11T07:13:44;3.80;99.90
54272;DHT22;40184;53.362;5.216;2022-12-11T07:16:12;3.50;99.90
54272;DHT22;40184;53.362;5.216;2022-12-11T07:18:44;3.60;99.90
54272;DHT22;40184;53.362;5.216;2022-12-11T07:21:11;3.80;99.90
54272;DHT22;40184;53.362;5.216;2022-12-11T07:23:37;3.80;99.90
54272;DHT22;40184;53.362;5.216;2022-12-11T07:26:07;3.30;99.90
54272;DHT22;40184;53.362;5.216;2022-12-11T07:28:34;3.30;99.90
54272;DHT22;40184;53.362;5.216;2022-12-11T07:31:07;3.80;99.90
54272;DHT22;40184;53.362;5.216;2022-12-11T07:33:33;3.50;99.90
54272;DHT22;40184;53.362;5.216;2022-12-11T07:36:01;3.90;99.90
54272;DHT22;40184;53.362;5.216;2022-12-11T07:38:27;3.90;99.90
54272;DHT22;40184;53.362;5.216;2022-12-11T07:40:53;3.90;99.90
54272;DHT22;40184;53.362;5.216;2022-12-11T07:43:18;3.80;99.90
54272;DHT22;40184;53.362;5.216;2022-12-11T07:45:44;3.90;99.90
54272;DHT22;40184;53.362;5.216;2022-12-11T07:48:10;3.70;99.90
54272;DHT22;40184;53.362;5.216;2022-12-11T07:50:37;3.70;99.90
54272;DHT22;40184;53.362;5.216;2022-12-11T07:53:03;3.50;99.90
54272;DHT22;40184;53.362;5.216;2022-12-11T07:55:28;3.50;99.90
54272;DHT22;40184;53.362;5.216;2022-12-11T07:57:54;4.00;99.90
54272;DHT22;40184;53.362;5.216;2022-12-11T08:00:20;3.60;99.90
54272;DHT22;40184;53.362;5.216;2022-12-11T08:02:45;4.00;99.90
54272;DHT22;40184;53.362;5.216;2022-12-11T08:05:11;3.50;99.90
54272;DHT22;40184;53.362;5.216;2022-12-11T08:07:37;3.40;99.90
54272;DHT22;40184;53.362;5.216;2022-12-11T08:10:03;4.00;99.90
54272;DHT22;40184;53.362;5.216;2022-12-11T08:12:29;4.00;99.90
54272;DHT22;40184;53.362;5.216;2022-12-11T08:14:55;3.50;99.90
54272;DHT22;40184;53.362;5.216;2022-12-11T08:17:20;4.00;99.90
54272;DHT22;40184;53.362;5.216;2022-12-11T08:19:46;3.70;99.90
54272;DHT22;40184;53.362;5.216;2022-12-11T08:22:12;3.90;99.90
54272;DHT22;40184;53.362;5.216;2022-12-11T08:24:38;3.50;99.90
54272;DHT22;40184;53.362;5.216;2022-12-11T08:27:05;4.00;99.90
54272;DHT22;40184;53.362;5.216;2022-12-11T08:29:31;3.80;99.90
54272;DHT22;40184;53.362;5.216;2022-12-11T08:31:57;3.50;99.90
54272;DHT22;40184;53.362;5.216;2022-12-11T08:34:22;4.00;99.90
54272;DHT22;40184;53.362;5.216;2022-12-11T08:36:48;3.70;99.90
54272;DHT22;40184;53.362;5.216;2022-12-11T08:39:14;3.70;99.90
54272;DHT22;40184;53.362;5.216;2022-12-11T08:41:39;3.60;99.90
54272;DHT22;40184;53.362;5.216;2022-12-11T08:44:10;3.90;99.90
54272;DHT22;40184;53.362;5.216;2022-12-11T08:46:36;4.10;99.90
54272;DHT22;40184;53.362;5.216;2022-12-11T08:49:02;3.90;99.90
54272;DHT22;40184;53.362;5.216;2022-12-11T08:51:29;3.60;99.90
54272;DHT22;40184;53.362;5.216;2022-12-11T08:53:57;4.10;99.90
54272;DHT22;40184;53.362;5.216;2022-12-11T08:56:23;3.70;99.90
54272;DHT22;40184;53.362;5.216;2022-12-11T08:58:50;3.70;99.90
54272;DHT22;40184;53.362;5.216;2022-12-11T09:01:21;3.60;99.90
54272;DHT22;40184;53.362;5.216;2022-12-11T09:03:49;3.80;99.90
54272;DHT22;40184;53.362;5.216;2022-12-11T09:06:17;3.60;99.90
54272;DHT22;40184;53.362;5.216;2022-12-11T09:08:44;3.60;99.90
54272;DHT22;40184;53.362;5.216;2022-12-11T09:11:13;3.90;99.90
54272;DHT22;40184;53.362;5.216;2022-12-11T09:13:40;3.70;99.90
54272;DHT22;40184;53.362;5.216;2022-12-11T09:16:09;3.80;99.90
54272;DHT22;40184;53.362;5.216;2022-12-11T09:18:36;4.00;99.90
54272;DHT22;40184;53.362;5.216;2022-12-11T09:21:13;3.80;99.90
54272;DHT22;40184;53.362;5.216;2022-12-11T09:23:40;4.10;99.90
54272;DHT22;40184;53.362;5.216;2022-12-11T09:26:11;3.80;99.90
54272;DHT22;40184;53.362;5.216;2022-12-11T09:28:37;4.20;99.90
54272;DHT22;40184;53.362;5.216;2022-12-11T09:31:24;3.90;99.90
54272;DHT22;40184;53.362;5.216;2022-12-11T09:33:52;4.40;99.90
54272;DHT22;40184;53.362;5.216;2022-12-11T09:36:18;3.80;99.90
54272;DHT22;40184;53.362;5.216;2022-12-11T09:38:44;4.30;99.90
54272;DHT22;40184;53.362;5.216;2022-12-11T09:44:22;3.90;99.90
54272;DHT22;40184;53.362;5.216;2022-12-11T09:46:50;4.20;99.90
54272;DHT22;40184;53.362;5.216;2022-12-11T09:49:35;4.00;99.90
54272;DHT22;40184;53.362;5.216;2022-12-11T09:54:47;4.00;99.90
54272;DHT22;40184;53.362;5.216;2022-12-11T10:03:00;4.60;99.90
54272;DHT22;40184;53.362;5.216;2022-12-11T10:06:02;4.10;99.90
54272;DHT22;40184;53.362;5.216;2022-12-11T10:16:30;4.30;99.90
54272;DHT22;40184;53.362;5.216;2022-12-11T10:18:57;4.80;99.90
54272;DHT22;40184;53.362;5.216;2022-12-11T10:21:24;4.70;99.90
54272;DHT22;40184;53.362;5.216;2022-12-11T10:23:57;5.40;99.90
54272;DHT22;40184;53.362;5.216;2022-12-11T10:26:23;5.40;99.90
54272;DHT22;40184;53.362;5.216;2022-12-11T10:28:49;4.90;99.90
54272;DHT22;40184;53.362;5.216;2022-12-11T10:34:15;5.30;99.90
54272;DHT22;40184;53.362;5.216;2022-12-11T10:36:43;5.10;99.90
54272;DHT22;40184;53.362;5.216;2022-12-11T10:39:14;5.10;99.90
54272;DHT22;40184;53.362;5.216;2022-12-11T10:41:51;5.60;99.90
54272;DHT22;40184;53.362;5.216;2022-12-11T10:44:26;5.50;99.90
54272;DHT22;40184;53.362;5.216;2022-12-11T10:47:09;5.40;99.90
54272;DHT22;40184;53.362;5.216;2022-12-11T10:49:37;4.90;99.90
54272;DHT22;40184;53.362;5.216;2022-12-11T10:52:19;4.90;99.90
54272;DHT22;40184;53.362;5.216;2022-12-11T10:54:57;5.20;99.90
54272;DHT22;40184;53.362;5.216;2022-12-11T10:57:33;4.60;99.90
54272;DHT22;40184;53.362;5.216;2022-12-11T10:59:59;5.00;99.90
54272;DHT22;40184;53.362;5.216;2022-12-11T11:02:27;5.10;99.90
54272;DHT22;40184;53.362;5.216;2022-12-11T11:04:54;5.10;99.90
54272;DHT22;40184;53.362;5.216;2022-12-11T11:07:25;4.80;99.90
54272;DHT22;40184;53.362;5.216;2022-12-11T11:12:41;4.70;99.90
54272;DHT22;40184;53.362;5.216;2022-12-11T11:15:21;4.70;99.90
54272;DHT22;40184;53.362;5.216;2022-12-11T11:17:52;4.40;99.90
54272;DHT22;40184;53.362;5.216;2022-12-11T11:20:20;4.70;99.90
54272;DHT22;40184;53.362;5.216;2022-12-11T11:22:51;5.00;99.90
54272;DHT22;40184;53.362;5.216;2022-12-11T11:25:23;4.50;99.90
54272;DHT22;40184;53.362;5.216;2022-12-11T11:27:59;5.10;99.90
54272;DHT22;40184;53.362;5.216;2022-12-11T11:30:31;4.70;99.90
54272;DHT22;40184;53.362;5.216;2022-12-11T11:33:01;5.10;99.90
54272;DHT22;40184;53.362;5.216;2022-12-11T11:35:31;4.70;99.90
54272;DHT22;40184;53.362;5.216;2022-12-11T11:40:28;4.90;99.90
54272;DHT22;40184;53.362;5.216;2022-12-11T11:43:06;4.70;99.90
54272;DHT22;40184;53.362;5.216;2022-12-11T11:45:55;4.70;99.90
54272;DHT22;40184;53.362;5.216;2022-12-11T11:51:38;4.70;99.90
54272;DHT22;40184;53.362;5.216;2022-12-11T11:54:27;5.10;99.90
54272;DHT22;40184;53.362;5.216;2022-12-11T11:56:55;5.10;99.90
54272;DHT22;40184;53.362;5.216;2022-12-11T11:59:39;4.80;99.90
54272;DHT22;40184;53.362;5.216;2022-12-11T12:02:15;4.40;99.90
54272;DHT22;40184;53.362;5.216;2022-12-11T12:04:41;4.90;99.90
54272;DHT22;40184;53.362;5.216;2022-12-11T12:21:37;4.40;99.90
54272;DHT22;40184;53.362;5.216;2022-12-11T12:24:33;4.90;99.90
54272;DHT22;40184;53.362;5.216;2022-12-11T12:37:45;4.50;99.90
54272;DHT22;40184;53.362;5.216;2022-12-11T12:40:14;5.00;99.90
54272;DHT22;40184;53.362;5.216;2022-12-11T12:48:15;4.30;99.90
54272;DHT22;40184;53.362;5.216;2022-12-11T12:50:43;4.50;99.90
54272;DHT22;40184;53.362;5.216;2022-12-11T12:53:20;4.30;99.90
54272;DHT22;40184;53.362;5.216;2022-12-11T12:55:48;4.60;99.90
54272;DHT22;40184;53.362;5.216;2022-12-11T12:58:24;4.30;99.90
54272;DHT22;40184;53.362;5.216;2022-12-11T13:00:51;4.20;99.90
54272;DHT22;40184;53.362;5.216;2022-12-11T13:05:57;4.60;99.90
54272;DHT22;40184;53.362;5.216;2022-12-11T13:08:27;4.10;99.90
54272;DHT22;40184;53.362;5.216;2022-12-11T13:11:06;4.10;99.90
54272;DHT22;40184;53.362;5.216;2022-12-11T13:16:26;4.30;99.90
54272;DHT22;40184;53.362;5.216;2022-12-11T13:18:52;4.10;99.90
54272;DHT22;40184;53.362;5.216;2022-12-11T13:26:38;4.50;99.90
54272;DHT22;40184;53.362;5.216;2022-12-11T13:29:04;4.10;99.90
54272;DHT22;40184;53.362;5.216;2022-12-11T13:31:37;4.20;99.90
54272;DHT22;40184;53.362;5.216;2022-12-11T13:34:15;4.40;99.90
54272;DHT22;40184;53.362;5.216;2022-12-11T13:36:49;4.00;99.90
54272;DHT22;40184;53.362;5.216;2022-12-11T13:39:18;3.80;99.90
54272;DHT22;40184;53.362;5.216;2022-12-11T13:41:53;4.50;99.90
54272;DHT22;40184;53.362;5.216;2022-12-11T13:44:26;4.20;99.90
54272;DHT22;40184;53.362;5.216;2022-12-11T13:46:54;4.00;99.90
54272;DHT22;40184;53.362;5.216;2022-12-11T13:49:36;3.80;99.90
54272;DHT22;40184;53.362;5.216;2022-12-11T13:52:04;4.40;99.90
54272;DHT22;40184;53.362;5.216;2022-12-11T13:54:32;4.10;99.90
54272;DHT22;40184;53.362;5.216;2022-12-11T13:59:32;4.20;99.90
54272;DHT22;40184;53.362;5.216;2022-12-11T14:02:23;4.00;99.90
54272;DHT22;40184;53.362;5.216;2022-12-11T14:04:56;3.90;99.90
54272;DHT22;40184;53.362;5.216;2022-12-11T14:07:37;4.10;99.90
54272;DHT22;40184;53.362;5.216;2022-12-11T14:10:06;3.90;99.90
54272;DHT22;40184;53.362;5.216;2022-12-11T14:12:34;3.80;99.90
54272;DHT22;40184;53.362;5.216;2022-12-11T14:15:02;3.50;99.90
54272;DHT22;40184;53.362;5.216;2022-12-11T14:17:30;3.50;99.90
54272;DHT22;40184;53.362;5.216;2022-12-11T14:19:59;4.00;99.90
54272;DHT22;40184;53.362;5.216;2022-12-11T14:22:27;3.50;99.90
54272;DHT22;40184;53.362;5.216;2022-12-11T14:24:58;3.60;99.90
54272;DHT22;40184;53.362;5.216;2022-12-11T14:27:26;4.00;99.90
54272;DHT22;40184;53.362;5.216;2022-12-11T14:29:52;3.70;99.90
54272;DHT22;40184;53.362;5.216;2022-12-11T14:34:45;3.90;99.90
54272;DHT22;40184;53.362;5.216;2022-12-11T14:37:13;4.30;99.90
54272;DHT22;40184;53.362;5.216;2022-12-11T14:39:44;4.20;99.90
54272;DHT22;40184;53.362;5.216;2022-12-11T14:42:23;4.10;99.90
54272;DHT22;40184;53.362;5.216;2022-12-11T14:44:54;3.90;99.90
54272;DHT22;40184;53.362;5.216;2022-12-11T14:47:24;3.90;99.90
54272;DHT22;40184;53.362;5.216;2022-12-11T14:49:54;3.80;99.90
54272;DHT22;40184;53.362;5.216;2022-12-11T14:52:28;4.00;99.90
54272;DHT22;40184;53.362;5.216;2022-12-11T14:54:59;4.20;99.90
54272;DHT22;40184;53.362;5.216;2022-12-11T14:57:28;4.10;99.90
54272;DHT22;40184;53.362;5.216;2022-12-11T14:59:55;3.40;99.90
54272;DHT22;40184;53.362;5.216;2022-12-11T15:02:29;3.60;99.90
54272;DHT22;40184;53.362;5.216;2022-12-11T15:05:14;4.00;99.90
54272;DHT22;40184;53.362;5.216;2022-12-11T15:07:42;3.30;99.90
54272;DHT22;40184;53.362;5.216;2022-12-11T15:10:22;3.60;99.90
54272;DHT22;40184;53.362;5.216;2022-12-11T15:12:48;3.30;99.90
54272;DHT22;40184;53.362;5.216;2022-12-11T15:15:15;3.60;99.90
54272;DHT22;40184;53.362;5.216;2022-12-11T15:17:41;3.60;99.90
54272;DHT22;40184;53.362;5.216;2022-12-11T15:20:10;3.80;99.90
54272;DHT22;40184;53.362;5.216;2022-12-11T15:22:45;3.80;99.90
54272;DHT22;40184;53.362;5.216;2022-12-11T15:25:21;3.60;99.90
54272;DHT22;40184;53.362;5.216;2022-12-11T15:27:53;3.20;99.90
54272;DHT22;40184;53.362;5.216;2022-12-11T15:33:17;3.70;99.90
54272;DHT22;40184;53.362;5.216;2022-12-11T15:35:56;3.50;99.90
54272;DHT22;40184;53.362;5.216;2022-12-11T15:38:36;3.60;99.90
54272;DHT22;40184;53.362;5.216;2022-12-11T15:41:05;3.60;99.90
54272;DHT22;40184;53.362;5.216;2022-12-11T15:43:36;3.30;99.90
54272;DHT22;40184;53.362;5.216;2022-12-11T15:46:03;3.70;99.90
54272;DHT22;40184;53.362;5.216;2022-12-11T15:48:29;3.10;99.90
54272;DHT22;40184;53.362;5.216;2022-12-11T15:50:54;3.60;99.90
54272;DHT22;40184;53.362;5.216;2022-12-11T15:53:20;3.00;99.90
54272;DHT22;40184;53.362;5.216;2022-12-11T15:55:46;3.10;99.90
54272;DHT22;40184;53.362;5.216;2022-12-11T15:58:15;3.30;99.90
54272;DHT22;40184;53.362;5.216;2022-12-11T16:00:42;3.10;99.90
54272;DHT22;40184;53.362;5.216;2022-12-11T16:03:12;3.60;99.90
54272;DHT22;40184;53.362;5.216;2022-12-11T16:05:39;3.40;99.90
54272;DHT22;40184;53.362;5.216;2022-12-11T16:08:05;3.20;99.90
54272;DHT22;40184;53.362;5.216;2022-12-11T16:10:30;3.10;99.90
54272;DHT22;40184;53.362;5.216;2022-12-11T16:12:56;3.40;99.90
54272;DHT22;40184;53.362;5.216;2022-12-11T16:15:25;3.30;99.90
54272;DHT22;40184;53.362;5.216;2022-12-11T16:17:59;3.20;99.90
54272;DHT22;40184;53.362;5.216;2022-12-11T16:20:24;2.80;99.90
54272;DHT22;40184;53.362;5.216;2022-12-11T16:22:50;3.20;99.90
54272;DHT22;40184;53.362;5.216;2022-12-11T16:25:16;3.00;99.90
54272;DHT22;40184;53.362;5.216;2022-12-11T16:27:41;2.90;99.90
54272;DHT22;40184;53.362;5.216;2022-12-11T16:30:08;2.60;99.90
54272;DHT22;40184;53.362;5.216;2022-12-11T16:32:35;2.60;99.90
54272;DHT22;40184;53.362;5.216;2022-12-11T16:35:00;3.20;99.90
54272;DHT22;40184;53.362;5.216;2022-12-11T16:37:26;2.90;99.90
54272;DHT22;40184;53.362;5.216;2022-12-11T16:39:52;2.60;99.90
54272;DHT22;40184;53.362;5.216;2022-12-11T16:42:18;2.60;99.90
54272;DHT22;40184;53.362;5.216;2022-12-11T16:44:43;3.10;99.90
54272;DHT22;40184;53.362;5.216;2022-12-11T16:47:09;3.00;99.90
54272;DHT22;40184;53.362;5.216;2022-12-11T16:49:34;2.70;99.90
54272;DHT22;40184;53.362;5.216;2022-12-11T16:52:00;2.70;99.90
54272;DHT22;40184;53.362;5.216;2022-12-11T16:54:26;2.60;99.90
54272;DHT22;40184;53.362;5.216;2022-12-11T16:56:51;2.90;99.90
54272;DHT22;40184;53.362;5.216;2022-12-11T16:59:17;2.90;99.90
54272;DHT22;40184;53.362;5.216;2022-12-11T17:01:43;2.80;99.90
54272;DHT22;40184;53.362;5.216;2022-12-11T17:04:09;2.60;99.90
54272;DHT22;40184;53.362;5.216;2022-12-11T17:06:35;2.90;99.90
54272;DHT22;40184;53.362;5.216;2022-12-11T17:09:01;2.90;99.90
54272;DHT22;40184;53.362;5.216;2022-12-11T17:11:26;3.10;99.90
54272;DHT22;40184;53.362;5.216;2022-12-11T17:13:53;2.70;99.90
54272;DHT22;40184;53.362;5.216;2022-12-11T17:16:20;3.10;99.90
54272;DHT22;40184;53.362;5.216;2022-12-11T17:18:46;2.90;99.90
54272;DHT22;40184;53.362;5.216;2022-12-11T17:21:14;2.80;99.90
54272;DHT22;40184;53.362;5.216;2022-12-11T17:23:40;2.60;99.90
54272;DHT22;40184;53.362;5.216;2022-12-11T17:26:06;3.00;99.90
54272;DHT22;40184;53.362;5.216;2022-12-11T17:28:36;2.60;99.90